Time;durP1;ratioP1;P1;durP2;ratioP2;P2;SDS_P1;SDS_P2;PMS_P1;PMS_P2;Temp;Humidity;BMP_temperature;BMP_pressure;BME280_temperature;BME280_humidity;BME280_pressure;Samples;Min_cycle;Max_cycle;Signal;HPM_P1;HPM_P2
2022/10/31 00:00:15;;;;;;;47.92;35.08;;;;;;;;;;5045388;28;20410;-84
2022/10/31 00:02:42;;;;;;;48.42;33.58;;;;;;;;;;5047245;28;20441;-83
2022/10/31 00:05:08;;;;;;;55.40;38.37;;;;;;;;;;5048384;28;20955;-82
2022/10/31 00:07:35;;;;;;;53.63;37.27;;;;;;;;;;5050161;28;20435;-82
2022/10/31 00:10:01;;;;;;;57.13;37.95;;;;;;;;;;5046698;28;20432;-83
2022/10/31 00:12:28;;;;;;;49.38;34.05;;;;;;;;;;5047687;28;20455;-83
2022/10/31 00:14:55;;;;;;;48.75;36.35;;;;;;;;;;5047573;28;20427;-83
2022/10/31 00:17:22;;;;;;;49.67;37.40;;;;;;;;;;5047114;28;20435;-80
2022/10/31 00:19:48;;;;;;;55.42;37.00;;;;;;;;;;5048711;28;20429;-82
2022/10/31 00:22:15;;;;;;;51.93;37.40;;;;;;;;;;5047639;28;20434;-82
2022/10/31 00:24:41;;;;;;;45.72;34.00;;;;;;;;;;5047502;28;20423;-82
2022/10/31 00:27:07;;;;;;;58.20;37.70;;;;;;;;;;5048290;28;20431;-80
2022/10/31 00:29:34;;;;;;;52.78;37.45;;;;;;;;;;5043114;28;20951;-81
2022/10/31 00:32:02;;;;;;;48.60;34.90;;;;;;;;;;5045935;28;20432;-81
2022/10/31 00:34:28;;;;;;;48.42;35.83;;;;;;;;;;5043922;28;20423;-81
2022/10/31 00:36:54;;;;;;;50.25;36.10;;;;;;;;;;5049625;28;20439;-82
2022/10/31 00:39:21;;;;;;;52.67;37.17;;;;;;;;;;5046023;28;20450;-81
2022/10/31 00:41:47;;;;;;;55.15;39.38;;;;;;;;;;5046386;28;20521;-82
2022/10/31 00:44:14;;;;;;;52.40;38.03;;;;;;;;;;5045711;28;20429;-82
2022/10/31 00:46:40;;;;;;;50.10;35.73;;;;;;;;;;5048485;28;20422;-82
2022/10/31 00:49:08;;;;;;;51.30;36.50;;;;;;;;;;5046675;28;20416;-81
2022/10/31 00:51:34;;;;;;;55.85;37.92;;;;;;;;;;5045913;28;20434;-82
2022/10/31 00:54:01;;;;;;;51.17;35.70;;;;;;;;;;5046215;28;20446;-81
2022/10/31 00:56:27;;;;;;;51.22;36.92;;;;;;;;;;5045450;28;20519;-82
2022/10/31 00:58:54;;;;;;;63.80;40.03;;;;;;;;;;5047445;28;20417;-82
2022/10/31 01:01:20;;;;;;;56.87;38.90;;;;;;;;;;5046786;28;20901;-82
2022/10/31 01:03:46;;;;;;;49.65;32.95;;;;;;;;;;5049662;28;20508;-82
2022/10/31 01:06:15;;;;;;;44.93;31.60;;;;;;;;;;5047070;28;20439;-82
2022/10/31 01:08:42;;;;;;;57.08;38.22;;;;;;;;;;5050306;28;20427;-83
2022/10/31 01:11:10;;;;;;;58.13;38.60;;;;;;;;;;5042750;28;20433;-82
2022/10/31 01:13:37;;;;;;;60.05;39.80;;;;;;;;;;5048517;28;20419;-82
2022/10/31 01:16:05;;;;;;;54.25;37.05;;;;;;;;;;5043446;28;20425;-83
2022/10/31 01:18:31;;;;;;;37.00;28.05;;;;;;;;;;5044721;28;20517;-82
2022/10/31 01:21:02;;;;;;;36.53;27.67;;;;;;;;;;5046623;28;20433;-81
2022/10/31 01:23:30;;;;;;;42.45;29.63;;;;;;;;;;5044996;28;21027;-80
2022/10/31 01:26:01;;;;;;;45.15;32.40;;;;;;;;;;5047768;28;20925;-81
2022/10/31 01:28:27;;;;;;;46.15;32.50;;;;;;;;;;5047772;28;20923;-81
2022/10/31 01:30:54;;;;;;;49.92;32.85;;;;;;;;;;5047972;28;20439;-81
2022/10/31 01:33:20;;;;;;;45.92;32.90;;;;;;;;;;5046930;28;20426;-81
2022/10/31 01:35:46;;;;;;;39.75;30.35;;;;;;;;;;5045825;28;20443;-81
2022/10/31 01:38:13;;;;;;;41.30;31.27;;;;;;;;;;5044820;28;20995;-81
2022/10/31 01:40:41;;;;;;;51.57;33.97;;;;;;;;;;5046749;28;20539;-83
2022/10/31 01:43:10;;;;;;;50.60;34.65;;;;;;;;;;5047556;28;20533;-81
2022/10/31 01:45:36;;;;;;;54.53;35.63;;;;;;;;;;5047409;28;20431;-81
2022/10/31 01:48:03;;;;;;;58.08;37.85;;;;;;;;;;5042799;28;20421;-81
2022/10/31 01:50:32;;;;;;;54.47;38.70;;;;;;;;;;5045056;28;20415;-82
2022/10/31 01:53:01;;;;;;;50.50;35.85;;;;;;;;;;5045972;28;20808;-81
2022/10/31 01:55:29;;;;;;;50.45;35.03;;;;;;;;;;5046026;28;20445;-83
2022/10/31 01:57:58;;;;;;;45.97;33.10;;;;;;;;;;5046603;28;20761;-83
2022/10/31 02:00:24;;;;;;;42.78;31.55;;;;;;;;;;5049274;28;20918;-83
2022/10/31 02:02:52;;;;;;;37.50;26.50;;;;;;;;;;5041519;28;20927;-83
2022/10/31 02:05:22;;;;;;;40.08;30.23;;;;;;;;;;5047708;28;20421;-84
2022/10/31 02:07:52;;;;;;;47.67;30.42;;;;;;;;;;5046655;28;20433;-83
2022/10/31 02:10:19;;;;;;;47.08;32.40;;;;;;;;;;5046017;28;20443;-83
2022/10/31 02:12:47;;;;;;;48.80;29.90;;;;;;;;;;5045290;28;20544;-82
2022/10/31 02:15:15;;;;;;;57.53;35.67;;;;;;;;;;5039819;28;20427;-82
2022/10/31 02:17:41;;;;;;;53.72;34.95;;;;;;;;;;5043282;28;20437;-83
2022/10/31 02:20:13;;;;;;;53.38;32.65;;;;;;;;;;5042767;28;20445;-83
2022/10/31 02:22:47;;;;;;;43.97;29.17;;;;;;;;;;5045238;28;20927;-82
2022/10/31 02:25:22;;;;;;;45.53;30.93;;;;;;;;;;5043808;28;20427;-83
2022/10/31 02:28:06;;;;;;;39.70;29.70;;;;;;;;;;5046721;28;20422;-82
2022/10/31 02:30:38;;;;;;;49.10;32.22;;;;;;;;;;5042574;28;20440;-82
2022/10/31 02:33:14;;;;;;;49.13;33.90;;;;;;;;;;5044006;28;20437;-80
2022/10/31 02:35:43;;;;;;;56.50;35.63;;;;;;;;;;5046219;28;20436;-82
2022/10/31 02:38:15;;;;;;;77.47;43.13;;;;;;;;;;5044498;28;20410;-83
2022/10/31 02:40:48;;;;;;;66.72;42.65;;;;;;;;;;5047415;28;20447;-82
2022/10/31 02:43:20;;;;;;;63.35;40.65;;;;;;;;;;5043664;28;20912;-81
2022/10/31 02:45:49;;;;;;;72.47;38.45;;;;;;;;;;5043504;28;20443;-83
2022/10/31 02:48:20;;;;;;;67.38;39.78;;;;;;;;;;5044194;28;20406;-83
2022/10/31 02:50:49;;;;;;;88.00;40.60;;;;;;;;;;5045721;28;20446;-83
2022/10/31 02:53:15;;;;;;;66.38;39.83;;;;;;;;;;5046245;28;20411;-82
2022/10/31 02:55:51;;;;;;;70.47;38.30;;;;;;;;;;5047575;28;20430;-82
2022/10/31 02:58:20;;;;;;;96.57;39.20;;;;;;;;;;5041966;28;20990;-81
2022/10/31 03:00:51;;;;;;;46.85;32.15;;;;;;;;;;5044924;28;20425;-82
2022/10/31 03:03:22;;;;;;;55.42;35.10;;;;;;;;;;5042678;28;20414;-82
2022/10/31 03:05:53;;;;;;;52.63;35.50;;;;;;;;;;5046679;28;20432;-82
2022/10/31 03:08:23;;;;;;;50.40;32.17;;;;;;;;;;5044043;28;20425;-82
2022/10/31 03:10:53;;;;;;;78.63;35.20;;;;;;;;;;5044147;28;20431;-83
2022/10/31 03:13:22;;;;;;;46.53;33.85;;;;;;;;;;5044479;28;20415;-81
2022/10/31 03:15:50;;;;;;;44.97;32.17;;;;;;;;;;5040921;28;20940;-81
2022/10/31 03:18:18;;;;;;;50.08;34.72;;;;;;;;;;5042458;28;20410;-82
2022/10/31 03:20:48;;;;;;;45.95;33.30;;;;;;;;;;5049309;28;20425;-81
2022/10/31 03:23:16;;;;;;;57.35;38.30;;;;;;;;;;5045305;28;20908;-80
2022/10/31 03:25:44;;;;;;;58.55;37.88;;;;;;;;;;5045690;28;20446;-80
2022/10/31 03:28:12;;;;;;;60.65;40.03;;;;;;;;;;5049629;28;20421;-81
2022/10/31 03:30:42;;;;;;;51.05;34.67;;;;;;;;;;5049742;28;20761;-81
2022/10/31 03:33:11;;;;;;;50.95;34.45;;;;;;;;;;5049453;28;20409;-81
2022/10/31 03:35:37;;;;;;;53.95;34.45;;;;;;;;;;5048396;28;20430;-82
2022/10/31 03:38:05;;;;;;;62.42;37.63;;;;;;;;;;5048811;28;20431;-83
2022/10/31 03:40:32;;;;;;;59.07;38.17;;;;;;;;;;5046021;28;20430;-82
2022/10/31 03:43:01;;;;;;;56.65;37.97;;;;;;;;;;5048183;28;20430;-80
2022/10/31 03:45:29;;;;;;;64.43;39.10;;;;;;;;;;5045369;28;20433;-81
2022/10/31 03:47:57;;;;;;;59.75;38.17;;;;;;;;;;5044383;28;20432;-82
2022/10/31 03:50:25;;;;;;;72.30;41.20;;;;;;;;;;5047962;28;20437;-81
2022/10/31 03:52:55;;;;;;;79.35;40.95;;;;;;;;;;5047195;28;20435;-82
2022/10/31 03:55:28;;;;;;;53.20;34.92;;;;;;;;;;5049343;28;20922;-81
2022/10/31 03:57:57;;;;;;;114.28;42.00;;;;;;;;;;5048621;28;20439;-81
2022/10/31 04:00:24;;;;;;;59.28;39.33;;;;;;;;;;5051343;28;20435;-82
2022/10/31 04:02:54;;;;;;;54.03;36.08;;;;;;;;;;5046899;28;20518;-82
2022/10/31 04:05:21;;;;;;;67.30;38.03;;;;;;;;;;5049883;28;20449;-82
2022/10/31 04:07:50;;;;;;;51.90;35.78;;;;;;;;;;5047062;28;20435;-84
2022/10/31 04:10:17;;;;;;;54.30;34.63;;;;;;;;;;5049668;28;20453;-82
2022/10/31 04:12:47;;;;;;;56.63;35.42;;;;;;;;;;5048383;28;20550;-82
2022/10/31 04:15:13;;;;;;;65.65;34.10;;;;;;;;;;5048490;28;20458;-81
2022/10/31 04:17:41;;;;;;;55.40;34.10;;;;;;;;;;5050514;28;20425;-81
2022/10/31 04:20:08;;;;;;;48.67;32.60;;;;;;;;;;5048606;28;20409;-80
2022/10/31 04:22:34;;;;;;;49.22;33.15;;;;;;;;;;5048113;28;20437;-81
2022/10/31 04:25:00;;;;;;;160.63;43.08;;;;;;;;;;5043951;28;20463;-81
2022/10/31 04:27:27;;;;;;;54.88;30.88;;;;;;;;;;5047438;28;20436;-81
2022/10/31 04:29:55;;;;;;;72.50;31.25;;;;;;;;;;5045806;28;20427;-81
2022/10/31 04:32:22;;;;;;;51.20;30.92;;;;;;;;;;5046530;28;20438;-80
2022/10/31 04:34:48;;;;;;;55.88;32.17;;;;;;;;;;5045753;28;20431;-82
2022/10/31 04:37:15;;;;;;;81.63;35.13;;;;;;;;;;5046250;28;20439;-84
2022/10/31 04:39:41;;;;;;;100.72;35.75;;;;;;;;;;5048163;28;20425;-81
2022/10/31 04:42:07;;;;;;;64.60;35.10;;;;;;;;;;5047175;28;20868;-81
2022/10/31 04:44:34;;;;;;;62.08;34.72;;;;;;;;;;5041973;28;20425;-82
2022/10/31 04:47:02;;;;;;;76.75;34.75;;;;;;;;;;5053229;28;20423;-82
2022/10/31 04:49:28;;;;;;;74.85;34.63;;;;;;;;;;5046430;28;20429;-81
2022/10/31 04:51:54;;;;;;;50.92;31.77;;;;;;;;;;5049401;28;20424;-82
2022/10/31 04:54:21;;;;;;;53.42;34.03;;;;;;;;;;5047519;28;20786;-80
2022/10/31 04:56:47;;;;;;;58.30;33.15;;;;;;;;;;5045713;28;20493;-81
2022/10/31 04:59:14;;;;;;;52.83;32.22;;;;;;;;;;5049418;28;20429;-82
2022/10/31 05:01:40;;;;;;;84.88;35.60;;;;;;;;;;5050507;28;20918;-81
2022/10/31 05:04:08;;;;;;;69.22;33.28;;;;;;;;;;5047558;28;20427;-83
2022/10/31 05:06:34;;;;;;;59.78;31.13;;;;;;;;;;5051381;28;20432;-82
2022/10/31 05:09:01;;;;;;;44.20;29.50;;;;;;;;;;5049252;28;20419;-82
2022/10/31 05:11:27;;;;;;;42.20;30.35;;;;;;;;;;5050112;28;20435;-82
2022/10/31 05:13:53;;;;;;;70.05;32.17;;;;;;;;;;5046863;28;20486;-82
2022/10/31 05:16:20;;;;;;;58.30;30.70;;;;;;;;;;5048935;28;20432;-82
2022/10/31 05:18:46;;;;;;;113.18;35.75;;;;;;;;;;5046502;28;20425;-82
2022/10/31 05:21:14;;;;;;;89.18;32.78;;;;;;;;;;5049646;28;20804;-81
2022/10/31 05:23:40;;;;;;;64.13;30.33;;;;;;;;;;5045858;28;20929;-81
2022/10/31 05:26:07;;;;;;;65.25;30.50;;;;;;;;;;5047788;28;20431;-81
2022/10/31 05:28:33;;;;;;;56.93;29.93;;;;;;;;;;5044349;28;20427;-81
2022/10/31 05:30:59;;;;;;;58.70;28.80;;;;;;;;;;5045145;28;20439;-82
2022/10/31 05:33:26;;;;;;;60.73;29.60;;;;;;;;;;5046379;28;20923;-81
2022/10/31 05:35:52;;;;;;;49.28;30.08;;;;;;;;;;5044601;28;20429;-81
2022/10/31 05:38:20;;;;;;;46.83;29.03;;;;;;;;;;5046064;28;20418;-80
2022/10/31 05:40:46;;;;;;;49.45;30.20;;;;;;;;;;5043380;28;20435;-81
2022/10/31 05:43:13;;;;;;;53.60;30.05;;;;;;;;;;5045341;28;20770;-81
2022/10/31 05:45:39;;;;;;;53.58;28.45;;;;;;;;;;5045692;28;20429;-82
2022/10/31 05:48:06;;;;;;;49.90;32.33;;;;;;;;;;5046599;28;20955;-81
2022/10/31 05:50:33;;;;;;;51.40;32.97;;;;;;;;;;5045595;28;20441;-81
2022/10/31 05:53:00;;;;;;;45.78;31.08;;;;;;;;;;5046868;28;20439;-82
2022/10/31 05:55:28;;;;;;;53.05;33.03;;;;;;;;;;5045931;28;20451;-82
2022/10/31 05:57:55;;;;;;;89.20;35.47;;;;;;;;;;5044015;28;20433;-82
2022/10/31 06:00:22;;;;;;;73.28;34.63;;;;;;;;;;5045925;28;20889;-81
2022/10/31 06:02:48;;;;;;;48.22;34.17;;;;;;;;;;5049644;28;20439;-81
2022/10/31 06:05:16;;;;;;;70.03;35.65;;;;;;;;;;5043616;28;20427;-82
2022/10/31 06:07:42;;;;;;;58.90;36.43;;;;;;;;;;5045495;28;20433;-82
2022/10/31 06:10:09;;;;;;;65.03;37.78;;;;;;;;;;5045029;28;20421;-82
2022/10/31 06:12:38;;;;;;;54.03;35.25;;;;;;;;;;5047524;28;20795;-82
2022/10/31 06:15:05;;;;;;;48.50;34.85;;;;;;;;;;5050057;28;20497;-82
2022/10/31 06:17:31;;;;;;;59.20;35.55;;;;;;;;;;5048440;28;20436;-82
2022/10/31 06:19:58;;;;;;;58.63;36.27;;;;;;;;;;5045710;28;20445;-82
2022/10/31 06:22:24;;;;;;;62.90;36.63;;;;;;;;;;5047146;28;20439;-82
2022/10/31 06:24:50;;;;;;;57.50;35.90;;;;;;;;;;5050279;28;20495;-82
2022/10/31 06:27:17;;;;;;;51.13;35.42;;;;;;;;;;5043926;28;20425;-82
2022/10/31 06:29:46;;;;;;;50.22;35.05;;;;;;;;;;5042473;28;20423;-82
2022/10/31 06:32:12;;;;;;;61.13;36.80;;;;;;;;;;5043358;28;20485;-80
2022/10/31 06:34:39;;;;;;;55.30;36.80;;;;;;;;;;5043933;28;20924;-81
2022/10/31 06:37:06;;;;;;;83.28;38.65;;;;;;;;;;5046340;28;20433;-82
2022/10/31 06:39:33;;;;;;;62.53;37.00;;;;;;;;;;5046270;28;20425;-81
2022/10/31 06:41:59;;;;;;;48.10;34.58;;;;;;;;;;5039337;28;20439;-82
2022/10/31 06:44:25;;;;;;;49.92;34.78;;;;;;;;;;5043786;28;20421;-81
2022/10/31 06:46:53;;;;;;;56.67;35.63;;;;;;;;;;5045628;28;20436;-82
2022/10/31 06:49:20;;;;;;;52.85;36.05;;;;;;;;;;5041938;28;20427;-81
2022/10/31 06:51:48;;;;;;;54.88;35.55;;;;;;;;;;5046656;28;20931;-82
2022/10/31 06:54:14;;;;;;;49.55;35.33;;;;;;;;;;5049095;28;20424;-83
2022/10/31 06:56:40;;;;;;;48.50;34.88;;;;;;;;;;5052583;28;20433;-83
2022/10/31 06:59:07;;;;;;;49.60;35.95;;;;;;;;;;5046792;28;20425;-82
2022/10/31 07:01:33;;;;;;;49.65;35.67;;;;;;;;;;5047021;28;20423;-83
2022/10/31 07:04:01;;;;;;;50.42;35.05;;;;;;;;;;5048542;28;20437;-83
2022/10/31 07:06:27;;;;;;;54.83;36.70;;;;;;;;;;5049200;28;20431;-82
2022/10/31 07:08:54;;;;;;;51.47;35.77;;;;;;;;;;5047993;28;20429;-82
2022/10/31 07:11:20;;;;;;;50.55;36.42;;;;;;;;;;5050920;28;20437;-83
2022/10/31 07:13:46;;;;;;;49.17;33.90;;;;;;;;;;5050620;28;20421;-83
2022/10/31 07:16:13;;;;;;;50.35;34.35;;;;;;;;;;5047973;28;20909;-83
2022/10/31 07:18:40;;;;;;;55.47;33.90;;;;;;;;;;5050008;28;20413;-83
2022/10/31 07:21:08;;;;;;;46.10;32.97;;;;;;;;;;5048912;28;20421;-82
2022/10/31 07:23:34;;;;;;;45.00;33.70;;;;;;;;;;5051123;28;20429;-82
2022/10/31 07:26:01;;;;;;;44.97;33.95;;;;;;;;;;5049296;28;20425;-82
2022/10/31 07:28:27;;;;;;;54.38;34.88;;;;;;;;;;5049994;28;20429;-83
2022/10/31 07:30:55;;;;;;;71.25;36.55;;;;;;;;;;5046648;28;20439;-79
2022/10/31 07:33:22;;;;;;;51.22;32.17;;;;;;;;;;5040611;28;20426;-83
2022/10/31 07:35:48;;;;;;;40.85;32.60;;;;;;;;;;5046546;28;20438;-82
2022/10/31 07:38:16;;;;;;;50.90;34.72;;;;;;;;;;5046603;28;20429;-82
2022/10/31 07:40:43;;;;;;;72.40;36.80;;;;;;;;;;5048650;28;20432;-82
2022/10/31 07:43:11;;;;;;;74.90;33.83;;;;;;;;;;5045971;28;20432;-81
2022/10/31 07:45:37;;;;;;;52.22;34.72;;;;;;;;;;5049325;28;20432;-82
2022/10/31 07:48:03;;;;;;;53.67;36.70;;;;;;;;;;5045194;28;20787;-81
2022/10/31 07:50:33;;;;;;;54.08;35.80;;;;;;;;;;5047117;28;20440;-81
2022/10/31 07:53:00;;;;;;;51.15;35.50;;;;;;;;;;5049161;28;20834;-82
2022/10/31 07:55:28;;;;;;;54.55;34.08;;;;;;;;;;5047812;28;20427;-82
2022/10/31 07:57:58;;;;;;;66.18;35.35;;;;;;;;;;5048333;28;20475;-82
2022/10/31 08:00:25;;;;;;;59.80;33.00;;;;;;;;;;5051453;28;20424;-82
2022/10/31 08:02:57;;;;;;;43.90;32.20;;;;;;;;;;5046520;28;20425;-78
2022/10/31 08:05:23;;;;;;;52.30;32.70;;;;;;;;;;5042719;28;20436;-80
2022/10/31 08:07:49;;;;;;;53.17;34.70;;;;;;;;;;5047119;28;20518;-81
2022/10/31 08:10:16;;;;;;;78.97;39.20;;;;;;;;;;5046736;28;20435;-80
2022/10/31 08:12:44;;;;;;;48.27;35.17;;;;;;;;;;5044891;28;20914;-81
2022/10/31 08:15:10;;;;;;;46.97;33.25;;;;;;;;;;5046350;28;20441;-83
2022/10/31 08:17:37;;;;;;;42.58;31.67;;;;;;;;;;5045359;28;20433;-82
2022/10/31 08:20:03;;;;;;;46.60;34.23;;;;;;;;;;5049447;28;20517;-82
2022/10/31 08:22:30;;;;;;;44.20;33.10;;;;;;;;;;5052799;28;20509;-83
2022/10/31 08:24:56;;;;;;;45.72;33.63;;;;;;;;;;5049530;28;20413;-83
2022/10/31 08:27:22;;;;;;;53.03;34.60;;;;;;;;;;5044879;28;20418;-81
2022/10/31 08:29:50;;;;;;;50.33;36.60;;;;;;;;;;5050528;28;20433;-83
2022/10/31 08:32:17;;;;;;;50.40;37.07;;;;;;;;;;5045890;28;20780;-81
2022/10/31 08:34:43;;;;;;;56.13;36.92;;;;;;;;;;5046991;28;20450;-81
2022/10/31 08:37:09;;;;;;;50.37;37.83;;;;;;;;;;5045383;28;20498;-82
2022/10/31 08:39:36;;;;;;;51.10;36.17;;;;;;;;;;5045477;28;20429;-81
2022/10/31 08:42:02;;;;;;;55.70;39.25;;;;;;;;;;5045659;28;20784;-81
2022/10/31 08:44:28;;;;;;;50.28;36.45;;;;;;;;;;5048761;28;20456;-82
2022/10/31 08:46:56;;;;;;;49.45;36.88;;;;;;;;;;5046454;28;20421;-83
2022/10/31 08:49:23;;;;;;;53.47;36.95;;;;;;;;;;5047337;28;20438;-81
2022/10/31 08:51:49;;;;;;;53.55;39.30;;;;;;;;;;5047038;28;20421;-81
2022/10/31 08:54:15;;;;;;;52.75;35.70;;;;;;;;;;5047754;28;20472;-82
2022/10/31 08:56:42;;;;;;;54.10;37.20;;;;;;;;;;5043831;28;20440;-81
2022/10/31 08:59:08;;;;;;;55.50;37.88;;;;;;;;;;5045440;28;20429;-81
2022/10/31 09:01:35;;;;;;;55.33;37.17;;;;;;;;;;5045488;28;20418;-82
2022/10/31 09:04:02;;;;;;;60.00;38.67;;;;;;;;;;5046052;28;20427;-81
2022/10/31 09:06:29;;;;;;;50.47;36.63;;;;;;;;;;5048215;28;20437;-81
2022/10/31 09:08:55;;;;;;;53.05;35.50;;;;;;;;;;5044467;28;20426;-81
2022/10/31 09:11:21;;;;;;;50.40;36.77;;;;;;;;;;5049205;28;20489;-82
2022/10/31 09:13:48;;;;;;;49.83;35.40;;;;;;;;;;5045794;28;20422;-81
2022/10/31 09:16:14;;;;;;;51.05;35.63;;;;;;;;;;5047953;28;20430;-82
2022/10/31 09:18:40;;;;;;;53.70;36.70;;;;;;;;;;5043888;28;20797;-80
2022/10/31 09:21:09;;;;;;;49.50;34.70;;;;;;;;;;5047758;28;20433;-81
2022/10/31 09:23:35;;;;;;;50.10;34.60;;;;;;;;;;5047249;28;20425;-82
2022/10/31 09:26:02;;;;;;;50.05;35.75;;;;;;;;;;5047256;28;20429;-81
2022/10/31 09:28:28;;;;;;;46.63;33.70;;;;;;;;;;5046086;28;20439;-82
2022/10/31 09:30:55;;;;;;;46.23;34.43;;;;;;;;;;5047639;28;20521;-81
2022/10/31 09:33:21;;;;;;;50.25;35.63;;;;;;;;;;5044745;28;20509;-81
2022/10/31 09:35:48;;;;;;;53.63;37.90;;;;;;;;;;5045117;28;20434;-80
2022/10/31 09:38:18;;;;;;;52.60;37.53;;;;;;;;;;5043392;28;20423;-80
2022/10/31 09:40:46;;;;;;;49.87;36.20;;;;;;;;;;5043302;28;20434;-81
2022/10/31 09:43:15;;;;;;;56.00;36.83;;;;;;;;;;5042629;28;20425;-81
2022/10/31 09:45:45;;;;;;;52.97;36.80;;;;;;;;;;5044081;28;20526;-82
2022/10/31 09:48:19;;;;;;;56.88;37.72;;;;;;;;;;5042724;28;20440;-80
2022/10/31 09:50:48;;;;;;;56.72;36.58;;;;;;;;;;5046152;28;20430;-82
2022/10/31 09:53:21;;;;;;;54.15;37.45;;;;;;;;;;5046162;28;20444;-81
2022/10/31 09:55:49;;;;;;;55.28;36.70;;;;;;;;;;5043500;28;20493;-80
2022/10/31 09:58:17;;;;;;;57.63;37.15;;;;;;;;;;5043321;28;20434;-80
2022/10/31 10:00:44;;;;;;;53.75;37.15;;;;;;;;;;5044137;28;20439;-80
2022/10/31 10:03:13;;;;;;;54.08;36.17;;;;;;;;;;5048889;28;20535;-81
2022/10/31 10:05:43;;;;;;;56.25;38.50;;;;;;;;;;5046668;28;20512;-82
2022/10/31 10:08:11;;;;;;;58.33;38.55;;;;;;;;;;5047289;28;20934;-81
2022/10/31 10:10:46;;;;;;;49.38;35.25;;;;;;;;;;5048617;28;20427;-83
2022/10/31 10:13:17;;;;;;;59.07;39.73;;;;;;;;;;5044210;28;20530;-81
2022/10/31 10:15:51;;;;;;;59.95;40.67;;;;;;;;;;5044283;28;20442;-82
2022/10/31 10:18:21;;;;;;;58.40;39.25;;;;;;;;;;5046786;28;20434;-81
2022/10/31 10:20:55;;;;;;;60.95;41.42;;;;;;;;;;5048231;28;20421;-80
2022/10/31 10:23:29;;;;;;;60.20;41.25;;;;;;;;;;5044811;28;20423;-81
2022/10/31 10:26:02;;;;;;;63.17;41.25;;;;;;;;;;5044092;28;20487;-82
2022/10/31 10:28:31;;;;;;;70.05;44.03;;;;;;;;;;5047725;28;20427;-80
2022/10/31 10:31:00;;;;;;;60.40;40.92;;;;;;;;;;5048599;28;20932;-81
2022/10/31 10:33:29;;;;;;;64.03;41.73;;;;;;;;;;5044077;28;20431;-80
2022/10/31 10:35:56;;;;;;;64.90;42.45;;;;;;;;;;5044969;28;20421;-80
2022/10/31 10:38:27;;;;;;;60.53;39.20;;;;;;;;;;5041321;28;20890;-80
2022/10/31 10:40:54;;;;;;;61.53;40.00;;;;;;;;;;5045689;28;20419;-81
2022/10/31 10:43:22;;;;;;;61.38;41.25;;;;;;;;;;5041214;28;20487;-81
2022/10/31 10:48:40;;;;;;;63.83;42.13;;;;;;;;;;5043486;28;20468;-80
2022/10/31 10:51:08;;;;;;;63.72;42.45;;;;;;;;;;5046480;28;20914;-80
2022/10/31 10:53:48;;;;;;;64.97;42.38;;;;;;;;;;5045944;28;20431;-81
2022/10/31 10:56:17;;;;;;;58.42;40.75;;;;;;;;;;5044815;28;20468;-81
2022/10/31 10:58:45;;;;;;;66.00;42.38;;;;;;;;;;5044083;28;20920;-80
2022/10/31 11:01:13;;;;;;;70.43;43.92;;;;;;;;;;5041031;28;20475;-81
2022/10/31 11:03:39;;;;;;;70.10;44.20;;;;;;;;;;5044628;28;20438;-81
2022/10/31 11:06:16;;;;;;;66.05;44.67;;;;;;;;;;5044204;28;20437;-81
2022/10/31 11:08:43;;;;;;;69.10;44.42;;;;;;;;;;5044608;28;20426;-81
2022/10/31 11:11:16;;;;;;;64.20;44.50;;;;;;;;;;5042502;28;20430;-80
2022/10/31 11:13:43;;;;;;;67.57;46.45;;;;;;;;;;5042154;28;20431;-80
2022/10/31 11:16:12;;;;;;;68.18;47.17;;;;;;;;;;5044000;28;20438;-81
2022/10/31 11:18:40;;;;;;;83.15;52.42;;;;;;;;;;5042754;28;20436;-81
2022/10/31 11:21:06;;;;;;;88.03;55.05;;;;;;;;;;5044891;28;20438;-81
2022/10/31 11:23:33;;;;;;;83.38;50.78;;;;;;;;;;5043433;28;20438;-81
2022/10/31 11:26:00;;;;;;;74.93;49.80;;;;;;;;;;5049369;28;20429;-82
2022/10/31 11:28:29;;;;;;;81.23;51.77;;;;;;;;;;5045771;28;20421;-83
2022/10/31 11:30:56;;;;;;;84.55;51.13;;;;;;;;;;5047686;28;20445;-83
2022/10/31 11:33:27;;;;;;;90.18;52.53;;;;;;;;;;5041911;28;20431;-80
2022/10/31 11:35:54;;;;;;;86.65;51.80;;;;;;;;;;5045773;28;20463;-81
2022/10/31 11:38:21;;;;;;;81.57;50.03;;;;;;;;;;5042517;28;21020;-80
2022/10/31 11:40:58;;;;;;;79.75;48.67;;;;;;;;;;5045472;28;20431;-80
2022/10/31 11:43:25;;;;;;;77.97;47.65;;;;;;;;;;5044144;28;20506;-80
2022/10/31 11:45:51;;;;;;;74.70;46.22;;;;;;;;;;5048746;28;20428;-80
2022/10/31 11:48:19;;;;;;;72.50;46.42;;;;;;;;;;5046443;28;20523;-82
2022/10/31 11:50:50;;;;;;;74.10;46.28;;;;;;;;;;5046839;28;20435;-81
2022/10/31 11:53:18;;;;;;;76.07;48.20;;;;;;;;;;5043428;28;20427;-80
2022/10/31 11:55:45;;;;;;;64.60;44.95;;;;;;;;;;5047449;28;20954;-81
2022/10/31 11:58:22;;;;;;;74.10;46.83;;;;;;;;;;5047071;28;20424;-83
2022/10/31 12:00:49;;;;;;;72.75;45.50;;;;;;;;;;5047014;28;20976;-80
2022/10/31 12:03:19;;;;;;;66.40;44.60;;;;;;;;;;5049000;28;20425;-81
2022/10/31 12:05:48;;;;;;;68.22;46.08;;;;;;;;;;5050262;28;20439;-81
2022/10/31 12:08:16;;;;;;;55.92;40.67;;;;;;;;;;5047078;28;20429;-81
2022/10/31 12:10:47;;;;;;;55.83;38.67;;;;;;;;;;5043251;28;20429;-84
2022/10/31 12:13:22;;;;;;;57.42;39.33;;;;;;;;;;5046091;28;20432;-81
2022/10/31 12:15:52;;;;;;;53.67;36.85;;;;;;;;;;5045924;28;20441;-80
2022/10/31 12:18:34;;;;;;;54.05;37.80;;;;;;;;;;5048338;28;20436;-81
2022/10/31 12:21:07;;;;;;;49.30;35.47;;;;;;;;;;5046289;28;20429;-81
2022/10/31 12:23:39;;;;;;;47.45;35.28;;;;;;;;;;5049618;28;20429;-81
2022/10/31 12:26:13;;;;;;;50.08;36.40;;;;;;;;;;5049870;28;20434;-82
2022/10/31 12:28:57;;;;;;;52.17;38.03;;;;;;;;;;5050142;28;20871;-82
2022/10/31 12:31:37;;;;;;;52.45;37.13;;;;;;;;;;5046877;28;20513;-82
2022/10/31 12:34:11;;;;;;;49.35;37.42;;;;;;;;;;5043957;28;20428;-82
2022/10/31 12:36:42;;;;;;;48.42;36.15;;;;;;;;;;5052442;28;20430;-82
2022/10/31 12:39:16;;;;;;;49.83;36.92;;;;;;;;;;5043677;28;20426;-81
2022/10/31 12:41:53;;;;;;;47.70;36.03;;;;;;;;;;5048635;28;20429;-81
2022/10/31 12:44:31;;;;;;;52.05;35.38;;;;;;;;;;5048273;28;20437;-81
2022/10/31 12:47:06;;;;;;;49.97;35.40;;;;;;;;;;5047360;28;20410;-81
2022/10/31 12:49:40;;;;;;;50.50;36.13;;;;;;;;;;5045727;28;21051;-81
2022/10/31 12:52:15;;;;;;;48.90;35.40;;;;;;;;;;5047107;28;20946;-81
2022/10/31 12:54:51;;;;;;;52.38;36.92;;;;;;;;;;5046508;28;20414;-82
2022/10/31 12:57:21;;;;;;;43.60;34.88;;;;;;;;;;5045092;28;20427;-81
2022/10/31 12:59:49;;;;;;;54.53;38.20;;;;;;;;;;5048493;28;20427;-81
2022/10/31 13:02:19;;;;;;;52.33;36.50;;;;;;;;;;5045761;28;20518;-82
2022/10/31 13:04:48;;;;;;;47.05;35.50;;;;;;;;;;5045172;28;20439;-80
2022/10/31 13:07:16;;;;;;;49.47;34.67;;;;;;;;;;5043829;28;20432;-81
2022/10/31 13:09:46;;;;;;;47.40;33.10;;;;;;;;;;5046683;28;20422;-80
2022/10/31 13:12:17;;;;;;;43.05;32.05;;;;;;;;;;5047681;28;20418;-81
2022/10/31 13:14:47;;;;;;;51.63;35.47;;;;;;;;;;5049220;28;20424;-82
2022/10/31 13:17:17;;;;;;;55.10;36.20;;;;;;;;;;5048191;28;20425;-81
2022/10/31 13:19:46;;;;;;;55.03;36.65;;;;;;;;;;5046576;28;20462;-81
2022/10/31 13:22:16;;;;;;;49.90;36.17;;;;;;;;;;5047486;28;21074;-81
2022/10/31 13:24:45;;;;;;;54.20;35.90;;;;;;;;;;5046448;28;20444;-82
2022/10/31 13:27:15;;;;;;;49.83;37.00;;;;;;;;;;5045587;28;20424;-82
2022/10/31 13:29:43;;;;;;;57.63;38.80;;;;;;;;;;5051170;28;20418;-81
2022/10/31 13:32:11;;;;;;;53.45;37.55;;;;;;;;;;5047373;28;20430;-81
2022/10/31 13:34:39;;;;;;;59.05;39.67;;;;;;;;;;5042281;28;20805;-82
2022/10/31 13:37:08;;;;;;;54.47;38.15;;;;;;;;;;5046800;28;20492;-81
2022/10/31 13:39:42;;;;;;;55.88;38.85;;;;;;;;;;5046817;28;20437;-81
2022/10/31 13:42:15;;;;;;;57.95;39.58;;;;;;;;;;5045763;28;20413;-81
2022/10/31 13:44:43;;;;;;;54.95;38.83;;;;;;;;;;5046192;28;20415;-81
2022/10/31 13:47:23;;;;;;;56.25;39.67;;;;;;;;;;5039484;28;20411;-82
2022/10/31 13:49:50;;;;;;;61.50;41.10;;;;;;;;;;5043866;28;20467;-81
2022/10/31 13:52:18;;;;;;;55.95;39.28;;;;;;;;;;5046480;28;20861;-81
2022/10/31 13:54:45;;;;;;;64.47;40.57;;;;;;;;;;5045461;28;20409;-81
2022/10/31 13:57:19;;;;;;;64.15;41.63;;;;;;;;;;5045257;28;20420;-82
2022/10/31 13:59:52;;;;;;;58.03;40.50;;;;;;;;;;5041486;28;20431;-81
2022/10/31 14:02:21;;;;;;;61.65;40.92;;;;;;;;;;5043163;28;20421;-81
2022/10/31 14:04:49;;;;;;;66.55;42.25;;;;;;;;;;5044029;28;20417;-80
2022/10/31 14:07:17;;;;;;;59.83;40.28;;;;;;;;;;5042774;28;20423;-82
2022/10/31 14:09:51;;;;;;;59.47;40.50;;;;;;;;;;5044211;28;20417;-82
2022/10/31 14:12:25;;;;;;;62.35;42.40;;;;;;;;;;5045000;28;20425;-81
2022/10/31 14:14:55;;;;;;;64.72;40.97;;;;;;;;;;5044548;28;20456;-82
2022/10/31 14:17:23;;;;;;;60.05;39.35;;;;;;;;;;5046216;28;20418;-81
2022/10/31 14:20:03;;;;;;;56.67;38.67;;;;;;;;;;5045318;28;20431;-80
2022/10/31 14:22:31;;;;;;;59.55;39.30;;;;;;;;;;5048044;28;20425;-82
2022/10/31 14:24:57;;;;;;;56.92;37.85;;;;;;;;;;5046637;28;20789;-81